createdAt,value
2019-03-09T00:02:24.552Z,1.00
2019-03-09T00:04:55.380Z,1.20
2019-03-09T00:07:27.392Z,1.40
2019-03-09T00:09:58.209Z,1.00
2019-03-09T00:12:29.072Z,0.90
2019-03-09T00:15:00.328Z,0.70
2019-03-09T00:17:31.124Z,0.90
2019-03-09T00:20:02.037Z,0.80
2019-03-09T00:22:33.148Z,0.70
2019-03-09T00:25:23.016Z,0.70
2019-03-09T00:28:22.154Z,0.88
2019-03-09T00:31:11.839Z,1.70
2019-03-09T00:33:42.637Z,0.80
2019-03-09T00:36:13.465Z,0.78
2019-03-09T00:38:44.532Z,0.60
2019-03-09T00:41:15.342Z,0.90
2019-03-09T00:43:46.484Z,0.70
2019-03-09T00:46:17.270Z,1.00
2019-03-09T00:48:48.070Z,0.80
2019-03-09T00:51:18.885Z,0.70
2019-03-09T00:53:49.680Z,0.80
2019-03-09T00:56:20.521Z,0.88
2019-03-09T00:58:51.332Z,0.75
2019-03-09T01:01:22.137Z,0.80
2019-03-09T01:03:52.933Z,0.90
2019-03-09T01:06:23.740Z,0.70
2019-03-09T01:08:54.549Z,0.60
2019-03-09T01:11:26.564Z,0.60
2019-03-09T01:13:57.376Z,0.62
2019-03-09T01:16:28.428Z,0.90
2019-03-09T01:18:59.668Z,0.90
2019-03-09T01:21:30.843Z,0.70
2019-03-09T01:24:01.633Z,0.70
2019-03-09T01:26:32.570Z,1.17
2019-03-09T01:29:03.360Z,0.70
2019-03-09T01:31:34.193Z,0.95
2019-03-09T01:34:05.109Z,1.20
2019-03-09T01:36:35.996Z,0.80
2019-03-09T01:39:07.943Z,0.90
2019-03-09T01:41:39.350Z,0.80
2019-03-09T01:44:10.202Z,0.78
2019-03-09T01:46:41.045Z,0.80
2019-03-09T01:49:11.840Z,0.90
2019-03-09T01:51:42.771Z,0.60
2019-03-09T01:54:14.891Z,0.80
2019-03-09T01:56:45.725Z,0.80
2019-03-09T01:59:16.526Z,0.85
2019-03-09T02:01:48.759Z,0.80
2019-03-09T02:04:19.883Z,0.82
2019-03-09T02:06:50.802Z,0.90
2019-03-09T02:09:22.156Z,1.10
2019-03-09T02:11:53.221Z,1.07
2019-03-09T02:14:24.016Z,1.77
2019-03-09T02:16:55.853Z,1.40
2019-03-09T02:19:26.666Z,1.62
2019-03-09T02:21:57.473Z,1.42
2019-03-09T02:24:28.284Z,1.90
2019-03-09T02:26:59.123Z,1.00
2019-03-09T02:29:29.924Z,1.00
2019-03-09T02:32:00.761Z,1.07
2019-03-09T02:34:31.657Z,1.20
2019-03-09T02:37:02.505Z,1.00
2019-03-09T02:39:52.102Z,1.07
2019-03-09T02:42:22.920Z,0.80
2019-03-09T02:44:53.725Z,0.80
2019-03-09T02:47:24.541Z,0.88
2019-03-09T02:49:55.547Z,1.02
2019-03-09T02:52:26.400Z,0.88
2019-03-09T02:54:57.285Z,0.80
2019-03-09T02:57:29.105Z,1.00
2019-03-09T03:00:01.173Z,0.93
2019-03-09T03:02:46.445Z,0.85
2019-03-09T03:05:17.468Z,0.78
2019-03-09T03:07:48.270Z,0.78
2019-03-09T03:10:19.085Z,0.65
2019-03-09T03:12:49.907Z,0.70
2019-03-09T03:15:32.889Z,1.00
2019-03-09T03:18:04.016Z,0.82
2019-03-09T03:20:34.929Z,1.00
2019-03-09T03:23:05.761Z,0.98
2019-03-09T03:25:36.528Z,0.90
2019-03-09T03:28:07.349Z,0.78
2019-03-09T03:30:39.152Z,0.95
2019-03-09T03:33:09.989Z,1.00
2019-03-09T03:35:40.772Z,0.95
2019-03-09T03:38:11.625Z,0.90
2019-03-09T03:40:42.425Z,0.88
2019-03-09T03:43:16.076Z,0.90
2019-03-09T03:45:46.309Z,0.70
2019-03-09T03:48:17.225Z,0.75
2019-03-09T03:50:48.014Z,0.85
2019-03-09T03:53:18.834Z,0.98
2019-03-09T03:55:49.847Z,0.80
2019-03-09T03:58:21.668Z,0.90
2019-03-09T04:00:52.696Z,1.27
2019-03-09T04:03:23.612Z,0.98
2019-03-09T04:05:54.717Z,0.93
2019-03-09T04:08:25.669Z,2.40
2019-03-09T04:10:56.883Z,1.00
2019-03-09T04:13:27.701Z,1.10
2019-03-09T04:15:58.509Z,1.00
2019-03-09T04:18:29.365Z,0.90
2019-03-09T04:21:02.027Z,1.45
2019-03-09T04:23:32.584Z,1.10
2019-03-09T04:26:03.410Z,1.40
2019-03-09T04:28:34.694Z,1.42
2019-03-09T04:31:05.550Z,1.42
2019-03-09T04:33:36.597Z,1.22
2019-03-09T04:36:07.396Z,1.10
2019-03-09T04:38:38.253Z,1.10
2019-03-09T04:41:09.052Z,1.72
2019-03-09T04:43:39.860Z,1.50
2019-03-09T04:46:10.774Z,1.37
2019-03-09T04:48:41.584Z,1.50
2019-03-09T04:51:12.385Z,1.35
2019-03-09T04:53:43.222Z,1.27
2019-03-09T04:56:14.005Z,1.70
2019-03-09T04:58:44.845Z,1.50
2019-03-09T05:01:15.653Z,1.30
2019-03-09T05:03:48.410Z,2.12
2019-03-09T05:06:20.034Z,1.45
2019-03-09T05:09:27.833Z,1.75
2019-03-09T05:11:58.644Z,1.67
2019-03-09T05:14:29.482Z,1.37
2019-03-09T05:17:00.296Z,1.55
2019-03-09T05:19:31.119Z,1.55
2019-03-09T05:22:01.909Z,1.77
2019-03-09T05:24:32.746Z,1.45
2019-03-09T05:27:03.559Z,1.55
2019-03-09T05:29:34.388Z,1.20
2019-03-09T05:32:05.302Z,1.40
2019-03-09T05:34:36.134Z,1.80
2019-03-09T05:37:06.936Z,1.70
2019-03-09T05:39:37.755Z,1.40
2019-03-09T05:42:08.564Z,1.72
2019-03-09T05:44:39.413Z,1.55
2019-03-09T05:47:10.212Z,1.82
2019-03-09T05:49:41.045Z,1.92
2019-03-09T05:52:34.761Z,1.55
2019-03-09T05:55:12.537Z,2.12
2019-03-09T05:57:44.349Z,1.60
2019-03-09T06:00:17.196Z,1.60
2019-03-09T06:02:48.008Z,1.70
2019-03-09T06:05:33.290Z,1.70
2019-03-09T06:08:04.633Z,1.60
2019-03-09T06:10:35.468Z,1.70
2019-03-09T06:13:06.604Z,1.90
2019-03-09T06:15:37.437Z,1.90
2019-03-09T06:18:08.263Z,1.87
2019-03-09T06:20:39.184Z,1.80
2019-03-09T06:23:10.081Z,1.82
2019-03-09T06:25:40.907Z,1.55
2019-03-09T06:28:12.099Z,1.80
2019-03-09T06:30:42.944Z,1.75
2019-03-09T06:33:30.516Z,1.47
2019-03-09T06:36:20.761Z,1.40
2019-03-09T06:39:00.152Z,1.80
2019-03-09T06:42:06.751Z,1.90
2019-03-09T06:44:37.604Z,1.80
2019-03-09T06:47:08.475Z,1.40
2019-03-09T06:49:39.288Z,1.98
2019-03-09T06:52:10.192Z,1.90
2019-03-09T06:54:42.030Z,1.60
2019-03-09T06:57:14.133Z,1.75
2019-03-09T06:59:45.177Z,1.67
2019-03-09T07:02:16.016Z,1.67
2019-03-09T07:04:46.881Z,1.72
2019-03-09T07:07:17.730Z,1.30
2019-03-09T07:09:48.540Z,1.90
2019-03-09T07:12:19.386Z,1.70
2019-03-09T07:15:22.147Z,1.40
2019-03-09T07:18:07.500Z,1.50
2019-03-09T07:20:38.412Z,1.65
2019-03-09T07:23:09.245Z,1.65
2019-03-09T07:25:40.059Z,1.60
2019-03-09T07:28:15.375Z,1.95
2019-03-09T07:30:47.657Z,1.50
2019-03-09T07:33:18.516Z,1.87
2019-03-09T07:35:49.448Z,1.65
2019-03-09T07:38:20.384Z,1.85
2019-03-09T07:40:51.433Z,1.60
2019-03-09T07:43:22.249Z,1.85
2019-03-09T07:45:53.057Z,1.50
2019-03-09T07:48:24.296Z,1.55
2019-03-09T07:50:55.119Z,1.72
2019-03-09T07:53:25.980Z,1.45
2019-03-09T07:55:57.338Z,1.47
2019-03-09T07:58:28.144Z,1.70
2019-03-09T08:00:59.000Z,1.70
2019-03-09T08:03:30.152Z,1.85
2019-03-09T08:06:01.198Z,1.40
2019-03-09T08:08:33.565Z,1.52
2019-03-09T08:11:04.390Z,1.47
2019-03-09T08:13:36.242Z,1.62
2019-03-09T08:16:07.047Z,1.47
2019-03-09T08:18:37.885Z,1.65
2019-03-09T08:21:08.725Z,1.52
2019-03-09T08:23:39.516Z,1.50
2019-03-09T08:26:10.361Z,2.00
2019-03-09T08:28:41.207Z,1.77
2019-03-09T08:31:13.659Z,1.42
2019-03-09T08:33:44.501Z,1.65
2019-03-09T08:36:15.424Z,1.45
2019-03-09T08:38:46.289Z,1.37
2019-03-09T08:41:17.119Z,1.55
2019-03-09T08:43:47.979Z,1.70
2019-03-09T08:46:18.799Z,1.45
2019-03-09T08:48:49.764Z,1.70
2019-03-09T08:51:20.640Z,1.57
2019-03-09T08:53:51.462Z,1.65
2019-03-09T08:56:22.306Z,1.52
2019-03-09T08:58:53.158Z,1.87
2019-03-09T09:01:24.015Z,1.32
2019-03-09T09:03:54.804Z,1.52
2019-03-09T09:06:25.645Z,1.57
2019-03-09T09:08:56.489Z,1.57
2019-03-09T09:11:27.325Z,1.60
2019-03-09T09:13:58.167Z,1.67
2019-03-09T09:16:28.981Z,1.87
2019-03-09T09:18:59.820Z,1.70
2019-03-09T09:21:30.643Z,1.70
2019-03-09T09:24:01.461Z,1.82
2019-03-09T09:26:32.294Z,1.65
2019-03-09T09:29:03.125Z,1.50
2019-03-09T09:31:33.941Z,1.60
2019-03-09T09:34:04.781Z,1.80
2019-03-09T09:36:36.357Z,1.32
2019-03-09T09:39:08.716Z,1.90
2019-03-09T09:41:41.087Z,1.60
2019-03-09T09:44:11.928Z,1.57
2019-03-09T09:46:42.761Z,1.65
2019-03-09T09:49:13.617Z,1.47
2019-03-09T09:51:44.439Z,1.32
2019-03-09T09:54:15.283Z,1.50
2019-03-09T09:56:46.090Z,1.40
2019-03-09T09:59:16.937Z,1.80
2019-03-09T10:01:47.784Z,2.05
2019-03-09T10:04:18.633Z,1.62
2019-03-09T10:06:49.464Z,1.62
2019-03-09T10:09:20.300Z,1.77
2019-03-09T10:11:51.141Z,3.85
2019-03-09T10:14:22.021Z,1.70
2019-03-09T10:16:52.853Z,1.70
2019-03-09T10:19:23.682Z,1.45
2019-03-09T10:21:54.535Z,1.10
2019-03-09T10:24:25.589Z,1.77
2019-03-09T10:26:56.408Z,1.60
2019-03-09T10:29:27.337Z,1.40
2019-03-09T10:31:58.202Z,1.77
2019-03-09T10:34:28.997Z,1.52
2019-03-09T10:36:59.813Z,1.50
2019-03-09T10:39:30.664Z,1.55
2019-03-09T10:42:01.481Z,2.10
2019-03-09T10:44:32.321Z,1.60
2019-03-09T10:47:03.127Z,2.10
2019-03-09T10:49:33.968Z,1.45
2019-03-09T10:52:04.790Z,1.60
2019-03-09T10:54:36.330Z,1.87
2019-03-09T10:57:07.595Z,1.70
2019-03-09T10:59:38.418Z,1.80
2019-03-09T11:02:09.331Z,1.77
2019-03-09T11:04:40.166Z,2.35
2019-03-09T11:07:10.972Z,1.87
2019-03-09T11:09:44.079Z,1.62
2019-03-09T11:12:14.336Z,1.95
2019-03-09T11:14:45.128Z,1.57
2019-03-09T11:17:15.945Z,2.20
2019-03-09T11:19:47.751Z,1.62
2019-03-09T11:22:19.407Z,1.90
2019-03-09T11:24:51.069Z,1.60
2019-03-09T11:27:22.513Z,1.80
2019-03-09T11:29:54.130Z,1.52
2019-03-09T11:32:25.463Z,1.40
2019-03-09T11:34:57.578Z,2.02
2019-03-09T11:37:29.174Z,1.85
2019-03-09T11:40:02.037Z,1.82
2019-03-09T11:42:34.932Z,1.85
2019-03-09T11:45:07.158Z,2.08
2019-03-09T11:47:38.298Z,1.80
2019-03-09T11:50:10.309Z,2.05
2019-03-09T11:52:41.728Z,1.90
2019-03-09T11:55:13.626Z,1.70
2019-03-09T11:57:45.548Z,2.15
2019-03-09T12:00:21.961Z,2.37
2019-03-09T12:02:53.436Z,1.92
2019-03-09T12:05:25.261Z,2.10
2019-03-09T12:07:56.611Z,2.00
2019-03-09T12:10:31.037Z,1.90
2019-03-09T12:13:02.548Z,1.82
2019-03-09T12:15:33.812Z,2.02
2019-03-09T12:18:06.102Z,2.15
2019-03-09T12:20:37.855Z,1.85
2019-03-09T12:23:20.763Z,1.92
2019-03-09T12:25:52.558Z,2.27
2019-03-09T12:28:24.111Z,2.00
2019-03-09T12:30:58.264Z,1.80
2019-03-09T12:33:31.880Z,2.10
2019-03-09T12:36:02.561Z,2.30
2019-03-09T12:38:34.008Z,1.98
2019-03-09T12:41:08.949Z,2.37
2019-03-09T12:43:40.081Z,1.82
2019-03-09T12:46:11.634Z,1.95
2019-03-09T12:48:45.276Z,1.60
2019-03-09T12:51:17.133Z,2.15
2019-03-09T12:53:49.278Z,1.82
2019-03-09T12:56:21.931Z,2.50
2019-03-09T12:58:53.643Z,2.50
2019-03-09T13:01:29.595Z,2.00
2019-03-09T13:03:58.299Z,1.90
2019-03-09T13:06:30.003Z,1.87
2019-03-09T13:09:01.997Z,2.40
2019-03-09T13:11:35.144Z,2.45
2019-03-09T13:14:06.213Z,2.47
2019-03-09T13:16:37.755Z,2.30
2019-03-09T13:19:09.131Z,2.40
2019-03-09T13:21:40.683Z,2.62
2019-03-09T13:24:12.598Z,2.35
2019-03-09T13:26:44.023Z,1.95
2019-03-09T13:29:15.803Z,2.75
2019-03-09T13:31:47.176Z,2.40
2019-03-09T13:34:18.794Z,2.00
2019-03-09T13:36:50.328Z,2.67
2019-03-09T13:39:21.970Z,2.65
2019-03-09T13:42:00.079Z,3.00
2019-03-09T13:44:31.806Z,2.83
2019-03-09T13:47:04.419Z,2.72
2019-03-09T13:49:36.272Z,3.27
2019-03-09T13:52:12.217Z,3.33
2019-03-09T13:54:45.716Z,2.65
2019-03-09T13:57:18.058Z,2.77
2019-03-09T13:59:49.213Z,2.17
2019-03-09T14:02:20.462Z,2.08
2019-03-09T14:04:54.124Z,2.25
2019-03-09T14:07:25.425Z,1.98
2019-03-09T14:09:58.317Z,2.33
2019-03-09T14:12:29.664Z,2.50
2019-03-09T14:15:04.369Z,2.47
2019-03-09T14:17:40.612Z,2.65
2019-03-09T14:20:12.732Z,2.92
2019-03-09T14:22:56.026Z,2.90
2019-03-09T14:25:27.992Z,2.80
2019-03-09T14:27:59.599Z,3.22
2019-03-09T14:30:31.140Z,3.62
2019-03-09T14:33:03.016Z,2.85
2019-03-09T14:35:34.523Z,2.45
2019-03-09T14:38:06.159Z,2.83
2019-03-09T14:40:37.769Z,2.37
2019-03-09T14:43:12.415Z,2.27
2019-03-09T14:45:45.241Z,2.77
2019-03-09T14:48:16.901Z,2.95
2019-03-09T14:50:49.845Z,2.92
2019-03-09T14:53:21.638Z,2.85
2019-03-09T14:55:53.088Z,3.15
2019-03-09T14:58:27.028Z,2.85
2019-03-09T15:00:59.984Z,2.80
2019-03-09T15:03:31.640Z,3.50
2019-03-09T15:06:05.068Z,2.80
2019-03-09T15:08:38.377Z,3.52
2019-03-09T15:11:13.974Z,4.08
2019-03-09T15:13:46.074Z,4.50
2019-03-09T15:16:37.078Z,4.95
2019-03-09T15:19:16.880Z,4.80
2019-03-09T15:25:11.951Z,4.42
2019-03-09T15:27:47.830Z,5.80
2019-03-09T15:30:19.774Z,6.05
2019-03-09T15:32:51.383Z,4.92
2019-03-09T15:35:24.991Z,5.33
2019-03-09T15:37:57.383Z,4.00
2019-03-09T15:40:32.084Z,3.70
2019-03-09T15:43:08.033Z,3.12
2019-03-09T15:45:45.106Z,3.33
2019-03-09T15:48:16.780Z,3.90
2019-03-09T15:50:51.972Z,3.67
2019-03-09T15:53:23.058Z,3.70
2019-03-09T15:55:56.265Z,3.50
2019-03-09T15:58:30.765Z,4.00
2019-03-09T16:01:04.065Z,3.12
2019-03-09T16:03:36.443Z,4.03
2019-03-09T16:06:09.007Z,4.17
2019-03-09T16:09:11.088Z,4.97
2019-03-09T16:11:44.984Z,3.87
2019-03-09T16:14:23.330Z,4.55
2019-03-09T16:20:16.099Z,4.08
2019-03-09T16:23:10.926Z,4.35
2019-03-09T16:25:57.173Z,5.40
2019-03-09T16:28:31.798Z,4.55
2019-03-09T16:31:14.204Z,4.62
2019-03-09T16:33:50.979Z,5.47
2019-03-09T16:36:27.589Z,6.03
2019-03-09T16:39:03.011Z,5.78
2019-03-09T16:41:36.918Z,5.70
2019-03-09T16:44:14.699Z,5.62
2019-03-09T16:46:48.103Z,5.60
2019-03-09T16:49:19.378Z,5.92
2019-03-09T16:52:07.191Z,6.35
2019-03-09T16:54:43.697Z,6.67
2019-03-09T16:57:42.053Z,6.95
2019-03-09T17:00:19.415Z,5.92
2019-03-09T17:03:16.582Z,7.62
2019-03-09T17:06:12.915Z,6.78
2019-03-09T17:08:41.241Z,6.60
2019-03-09T17:11:46.290Z,6.53
2019-03-09T17:14:23.877Z,6.10
2019-03-09T17:26:58.578Z,7.35
2019-03-09T17:29:54.741Z,7.70
2019-03-09T17:32:26.675Z,8.03
2019-03-09T17:35:00.338Z,8.55
2019-03-09T17:41:00.220Z,9.20
2019-03-09T17:43:38.443Z,7.45
2019-03-09T17:46:10.802Z,9.48
2019-03-09T17:48:45.430Z,8.50
2019-03-09T17:51:41.269Z,8.38
2019-03-09T17:54:19.573Z,9.65
2019-03-09T17:57:08.023Z,9.25
2019-03-09T17:59:57.260Z,8.95
2019-03-09T18:02:36.729Z,8.50
2019-03-09T18:05:22.207Z,9.28
2019-03-09T18:08:27.857Z,9.63
2019-03-09T18:14:23.496Z,9.95
2019-03-09T18:17:02.525Z,9.43
2019-03-09T18:19:50.868Z,8.88
2019-03-09T18:22:29.667Z,9.38
2019-03-09T18:28:10.193Z,8.78
2019-03-09T18:31:38.156Z,10.30
2019-03-09T18:34:16.252Z,12.30
2019-03-09T18:36:58.432Z,11.00
2019-03-09T18:39:48.601Z,10.38
2019-03-09T18:42:37.791Z,12.40
2019-03-09T18:45:13.656Z,8.83
2019-03-09T18:50:55.384Z,10.88
2019-03-09T18:53:40.436Z,11.28
2019-03-09T18:56:13.574Z,11.75
2019-03-09T18:58:53.441Z,12.33
2019-03-09T19:01:27.795Z,11.15
2019-03-09T19:04:24.436Z,10.90
2019-03-09T19:07:09.999Z,11.08
2019-03-09T19:09:52.729Z,9.80
2019-03-09T19:13:12.821Z,8.73
2019-03-09T19:21:34.329Z,10.82
2019-03-09T19:24:48.600Z,11.28
2019-03-09T19:27:33.985Z,11.65
2019-03-09T19:30:09.586Z,10.88
2019-03-09T19:32:47.252Z,9.20
2019-03-09T19:35:23.715Z,10.82
2019-03-09T19:38:00.198Z,9.30
2019-03-09T19:40:42.964Z,10.93
2019-03-09T19:43:21.003Z,8.90
2019-03-09T19:45:54.297Z,9.38
2019-03-09T19:48:59.620Z,10.32
2019-03-09T19:51:32.910Z,10.32
2019-03-09T19:54:19.849Z,9.38
2019-03-09T19:56:58.491Z,8.53
2019-03-09T19:59:41.076Z,9.40
2019-03-09T20:02:39.459Z,8.00
2019-03-09T20:05:38.266Z,7.62
2019-03-09T20:08:33.044Z,7.87
2019-03-09T20:11:07.873Z,8.38
2019-03-09T20:13:42.091Z,8.30
2019-03-09T20:16:22.360Z,8.28
2019-03-09T20:19:00.127Z,7.83
2019-03-09T20:21:39.902Z,6.47
2019-03-09T20:24:20.860Z,5.97
2019-03-09T20:27:01.674Z,5.80
2019-03-09T20:29:35.822Z,5.95
2019-03-09T20:32:17.164Z,5.62
2019-03-09T20:34:49.188Z,6.30
2019-03-09T20:40:56.626Z,5.35
2019-03-09T20:43:40.645Z,5.22
2019-03-09T20:46:25.346Z,4.70
2019-03-09T20:49:06.303Z,3.80
2019-03-09T20:51:48.173Z,4.10
2019-03-09T20:54:23.437Z,3.67
2019-03-09T20:57:06.248Z,3.58
2019-03-09T21:00:08.256Z,3.50
2019-03-09T21:02:43.488Z,2.75
2019-03-09T21:05:30.372Z,2.98
2019-03-09T21:08:09.528Z,2.60
2019-03-09T21:10:44.791Z,2.40
2019-03-09T21:14:05.654Z,2.30
2019-03-09T21:21:55.976Z,1.80
2019-03-09T21:24:45.795Z,1.80
2019-03-09T21:27:55.504Z,1.70
2019-03-09T21:30:29.412Z,1.70
2019-03-09T21:33:11.974Z,1.92
2019-03-09T21:36:29.249Z,1.90
2019-03-09T21:40:31.425Z,1.40
2019-03-09T21:42:24.258Z,1.52
2019-03-09T21:45:27.669Z,1.30
2019-03-09T21:50:52.040Z,1.25
2019-03-09T21:53:29.013Z,1.30
2019-03-09T21:56:09.687Z,1.25
2019-03-09T22:02:12.799Z,1.02
2019-03-09T22:04:50.823Z,1.30
2019-03-09T22:07:33.552Z,1.20
2019-03-09T22:10:09.717Z,1.10
2019-03-09T22:12:54.431Z,1.00
2019-03-09T22:15:47.581Z,1.15
2019-03-09T22:18:24.083Z,1.12
2019-03-09T22:21:37.227Z,1.27
2019-03-09T22:24:25.141Z,1.77
2019-03-09T22:30:30.025Z,1.80
2019-03-09T22:33:26.866Z,1.82
2019-03-09T22:39:38.871Z,1.60
2019-03-09T22:52:05.578Z,1.62
2019-03-09T23:14:37.195Z,2.70
2019-03-09T23:17:28.400Z,3.30
2019-03-09T23:20:21.446Z,2.55
2019-03-09T23:23:18.498Z,2.05
2019-03-09T23:25:59.461Z,2.65
2019-03-09T23:28:46.373Z,2.20
2019-03-09T23:39:28.639Z,2.67
2019-03-09T23:50:59.669Z,2.27
2019-03-09T23:56:49.925Z,2.83
